sensor_id;sensor_type;location;lat;lon;timestamp;P1;durP1;ratioP1;P2;durP2;ratioP2
20480;SDS011;10399;50.754;3.366;2023-08-20T00:01:43;5.93;;;2.00;;
20480;SDS011;10399;50.754;3.366;2023-08-20T00:04:14;7.88;;;2.17;;
20480;SDS011;10399;50.754;3.366;2023-08-20T00:06:46;6.75;;;1.75;;
20480;SDS011;10399;50.754;3.366;2023-08-20T00:09:16;6.22;;;2.17;;
20480;SDS011;10399;50.754;3.366;2023-08-20T00:11:44;6.18;;;1.75;;
20480;SDS011;10399;50.754;3.366;2023-08-20T00:14:16;8.10;;;1.92;;
20480;SDS011;10399;50.754;3.366;2023-08-20T00:16:46;7.68;;;1.90;;
20480;SDS011;10399;50.754;3.366;2023-08-20T00:19:16;8.63;;;1.95;;
20480;SDS011;10399;50.754;3.366;2023-08-20T00:21:43;8.73;;;2.35;;
20480;SDS011;10399;50.754;3.366;2023-08-20T00:24:11;8.18;;;1.80;;
20480;SDS011;10399;50.754;3.366;2023-08-20T00:26:39;6.68;;;2.10;;
20480;SDS011;10399;50.754;3.366;2023-08-20T00:29:06;6.95;;;1.88;;
20480;SDS011;10399;50.754;3.366;2023-08-20T00:31:34;6.88;;;2.00;;
20480;SDS011;10399;50.754;3.366;2023-08-20T00:34:01;14.32;;;2.50;;
20480;SDS011;10399;50.754;3.366;2023-08-20T00:36:33;10.45;;;3.03;;
20480;SDS011;10399;50.754;3.366;2023-08-20T00:39:03;12.45;;;3.53;;
20480;SDS011;10399;50.754;3.366;2023-08-20T00:41:31;13.75;;;3.55;;
20480;SDS011;10399;50.754;3.366;2023-08-20T00:43:58;10.57;;;2.80;;
20480;SDS011;10399;50.754;3.366;2023-08-20T00:46:26;9.10;;;2.45;;
20480;SDS011;10399;50.754;3.366;2023-08-20T00:48:53;5.93;;;2.28;;
20480;SDS011;10399;50.754;3.366;2023-08-20T00:51:24;5.78;;;2.90;;
20480;SDS011;10399;50.754;3.366;2023-08-20T00:53:52;5.15;;;2.00;;
20480;SDS011;10399;50.754;3.366;2023-08-20T00:56:19;7.45;;;2.20;;
20480;SDS011;10399;50.754;3.366;2023-08-20T00:58:47;12.45;;;2.72;;
20480;SDS011;10399;50.754;3.366;2023-08-20T01:01:14;11.55;;;2.47;;
20480;SDS011;10399;50.754;3.366;2023-08-20T01:03:41;7.45;;;2.40;;
20480;SDS011;10399;50.754;3.366;2023-08-20T01:06:12;6.70;;;2.90;;
20480;SDS011;10399;50.754;3.366;2023-08-20T01:08:46;11.98;;;3.08;;
20480;SDS011;10399;50.754;3.366;2023-08-20T01:11:21;7.40;;;2.40;;
20480;SDS011;10399;50.754;3.366;2023-08-20T01:13:55;8.25;;;3.13;;
20480;SDS011;10399;50.754;3.366;2023-08-20T01:16:27;8.82;;;2.67;;
20480;SDS011;10399;50.754;3.366;2023-08-20T01:18:55;6.88;;;2.40;;
20480;SDS011;10399;50.754;3.366;2023-08-20T01:21:38;9.52;;;2.90;;
20480;SDS011;10399;50.754;3.366;2023-08-20T01:27:43;7.68;;;2.78;;
20480;SDS011;10399;50.754;3.366;2023-08-20T01:30:28;5.75;;;2.70;;
20480;SDS011;10399;50.754;3.366;2023-08-20T01:32:57;8.20;;;2.65;;
20480;SDS011;10399;50.754;3.366;2023-08-20T01:35:26;9.95;;;2.80;;
20480;SDS011;10399;50.754;3.366;2023-08-20T01:37:54;6.53;;;2.53;;
20480;SDS011;10399;50.754;3.366;2023-08-20T01:40:24;8.15;;;2.65;;
20480;SDS011;10399;50.754;3.366;2023-08-20T01:42:52;9.85;;;3.22;;
20480;SDS011;10399;50.754;3.366;2023-08-20T01:45:19;10.10;;;2.72;;
20480;SDS011;10399;50.754;3.366;2023-08-20T01:47:46;7.80;;;2.97;;
20480;SDS011;10399;50.754;3.366;2023-08-20T01:50:13;7.00;;;2.63;;
20480;SDS011;10399;50.754;3.366;2023-08-20T01:52:40;6.93;;;2.70;;
20480;SDS011;10399;50.754;3.366;2023-08-20T01:55:08;8.30;;;3.25;;
20480;SDS011;10399;50.754;3.366;2023-08-20T01:57:41;7.60;;;2.83;;
20480;SDS011;10399;50.754;3.366;2023-08-20T02:00:12;13.23;;;3.13;;
20480;SDS011;10399;50.754;3.366;2023-08-20T02:02:40;6.30;;;2.38;;
20480;SDS011;10399;50.754;3.366;2023-08-20T02:05:08;7.55;;;2.72;;
20480;SDS011;10399;50.754;3.366;2023-08-20T02:07:37;5.47;;;2.47;;
20480;SDS011;10399;50.754;3.366;2023-08-20T02:10:04;9.30;;;2.97;;
20480;SDS011;10399;50.754;3.366;2023-08-20T02:12:32;5.25;;;2.53;;
20480;SDS011;10399;50.754;3.366;2023-08-20T02:15:00;7.45;;;2.50;;
20480;SDS011;10399;50.754;3.366;2023-08-20T02:17:28;9.30;;;2.88;;
20480;SDS011;10399;50.754;3.366;2023-08-20T02:19:56;5.13;;;2.15;;
20480;SDS011;10399;50.754;3.366;2023-08-20T02:22:23;7.43;;;2.90;;
20480;SDS011;10399;50.754;3.366;2023-08-20T02:24:51;8.07;;;2.88;;
20480;SDS011;10399;50.754;3.366;2023-08-20T02:27:19;8.60;;;3.05;;
20480;SDS011;10399;50.754;3.366;2023-08-20T02:29:47;8.48;;;2.60;;
20480;SDS011;10399;50.754;3.366;2023-08-20T02:32:15;7.57;;;2.47;;
20480;SDS011;10399;50.754;3.366;2023-08-20T02:34:43;10.15;;;2.53;;
20480;SDS011;10399;50.754;3.366;2023-08-20T02:37:12;5.80;;;2.67;;
20480;SDS011;10399;50.754;3.366;2023-08-20T02:39:39;7.38;;;2.95;;
20480;SDS011;10399;50.754;3.366;2023-08-20T02:42:06;9.88;;;2.75;;
20480;SDS011;10399;50.754;3.366;2023-08-20T02:44:33;9.07;;;2.47;;
20480;SDS011;10399;50.754;3.366;2023-08-20T02:47:00;6.35;;;2.33;;
20480;SDS011;10399;50.754;3.366;2023-08-20T02:49:28;10.25;;;2.40;;
20480;SDS011;10399;50.754;3.366;2023-08-20T02:51:55;5.18;;;2.47;;
20480;SDS011;10399;50.754;3.366;2023-08-20T02:54:22;10.70;;;2.50;;
20480;SDS011;10399;50.754;3.366;2023-08-20T02:56:52;4.72;;;2.08;;
20480;SDS011;10399;50.754;3.366;2023-08-20T02:59:19;7.85;;;2.42;;
20480;SDS011;10399;50.754;3.366;2023-08-20T03:01:47;6.95;;;2.17;;
20480;SDS011;10399;50.754;3.366;2023-08-20T03:04:15;8.00;;;2.45;;
20480;SDS011;10399;50.754;3.366;2023-08-20T03:06:42;5.55;;;2.60;;
20480;SDS011;10399;50.754;3.366;2023-08-20T03:09:11;8.38;;;2.50;;
20480;SDS011;10399;50.754;3.366;2023-08-20T03:11:38;7.07;;;2.33;;
20480;SDS011;10399;50.754;3.366;2023-08-20T03:14:05;8.60;;;2.30;;
20480;SDS011;10399;50.754;3.366;2023-08-20T03:16:37;9.65;;;2.80;;
20480;SDS011;10399;50.754;3.366;2023-08-20T03:19:04;8.07;;;2.42;;
20480;SDS011;10399;50.754;3.366;2023-08-20T03:21:31;8.10;;;2.55;;
20480;SDS011;10399;50.754;3.366;2023-08-20T03:23:59;7.70;;;2.90;;
20480;SDS011;10399;50.754;3.366;2023-08-20T03:26:26;7.05;;;2.78;;
20480;SDS011;10399;50.754;3.366;2023-08-20T03:28:56;10.15;;;2.65;;
20480;SDS011;10399;50.754;3.366;2023-08-20T03:31:23;5.65;;;2.55;;
20480;SDS011;10399;50.754;3.366;2023-08-20T03:33:50;6.22;;;2.33;;
20480;SDS011;10399;50.754;3.366;2023-08-20T03:36:18;8.32;;;2.58;;
20480;SDS011;10399;50.754;3.366;2023-08-20T03:38:45;8.30;;;2.58;;
20480;SDS011;10399;50.754;3.366;2023-08-20T03:41:13;6.32;;;2.65;;
20480;SDS011;10399;50.754;3.366;2023-08-20T03:43:40;5.47;;;2.70;;
20480;SDS011;10399;50.754;3.366;2023-08-20T03:46:10;8.20;;;2.67;;
20480;SDS011;10399;50.754;3.366;2023-08-20T03:48:43;5.22;;;2.25;;
20480;SDS011;10399;50.754;3.366;2023-08-20T03:51:11;7.88;;;3.03;;
20480;SDS011;10399;50.754;3.366;2023-08-20T03:53:41;6.07;;;2.67;;
20480;SDS011;10399;50.754;3.366;2023-08-20T03:56:10;10.52;;;2.92;;
20480;SDS011;10399;50.754;3.366;2023-08-20T03:58:38;9.10;;;2.85;;
20480;SDS011;10399;50.754;3.366;2023-08-20T04:01:05;8.27;;;2.95;;
20480;SDS011;10399;50.754;3.366;2023-08-20T04:03:35;6.57;;;2.78;;
20480;SDS011;10399;50.754;3.366;2023-08-20T04:06:08;9.15;;;2.80;;
20480;SDS011;10399;50.754;3.366;2023-08-20T04:08:35;7.40;;;2.20;;
20480;SDS011;10399;50.754;3.366;2023-08-20T04:11:02;5.07;;;2.38;;
20480;SDS011;10399;50.754;3.366;2023-08-20T04:13:30;5.93;;;2.47;;
20480;SDS011;10399;50.754;3.366;2023-08-20T04:16:00;9.13;;;2.78;;
20480;SDS011;10399;50.754;3.366;2023-08-20T04:18:27;6.90;;;2.80;;
20480;SDS011;10399;50.754;3.366;2023-08-20T04:20:58;6.97;;;2.47;;
20480;SDS011;10399;50.754;3.366;2023-08-20T04:23:25;6.18;;;2.72;;
20480;SDS011;10399;50.754;3.366;2023-08-20T04:25:53;6.38;;;2.83;;
20480;SDS011;10399;50.754;3.366;2023-08-20T04:28:20;8.40;;;2.67;;
20480;SDS011;10399;50.754;3.366;2023-08-20T04:30:47;8.10;;;2.38;;
20480;SDS011;10399;50.754;3.366;2023-08-20T04:33:15;9.65;;;2.80;;
20480;SDS011;10399;50.754;3.366;2023-08-20T04:35:43;5.00;;;2.45;;
20480;SDS011;10399;50.754;3.366;2023-08-20T04:38:13;5.50;;;2.67;;
20480;SDS011;10399;50.754;3.366;2023-08-20T04:40:45;5.47;;;2.25;;
20480;SDS011;10399;50.754;3.366;2023-08-20T04:43:14;9.32;;;3.10;;
20480;SDS011;10399;50.754;3.366;2023-08-20T04:45:42;5.25;;;2.90;;
20480;SDS011;10399;50.754;3.366;2023-08-20T04:48:12;5.47;;;2.53;;
20480;SDS011;10399;50.754;3.366;2023-08-20T04:50:46;6.65;;;2.63;;
20480;SDS011;10399;50.754;3.366;2023-08-20T04:53:15;6.63;;;2.90;;
20480;SDS011;10399;50.754;3.366;2023-08-20T04:55:42;8.43;;;3.00;;
20480;SDS011;10399;50.754;3.366;2023-08-20T04:58:13;6.45;;;2.65;;
20480;SDS011;10399;50.754;3.366;2023-08-20T05:00:40;9.18;;;2.95;;
20480;SDS011;10399;50.754;3.366;2023-08-20T05:03:08;6.80;;;3.28;;
20480;SDS011;10399;50.754;3.366;2023-08-20T05:05:37;5.35;;;2.97;;
20480;SDS011;10399;50.754;3.366;2023-08-20T05:08:04;8.32;;;3.50;;
20480;SDS011;10399;50.754;3.366;2023-08-20T05:10:31;11.43;;;3.60;;
20480;SDS011;10399;50.754;3.366;2023-08-20T05:12:58;9.48;;;3.97;;
20480;SDS011;10399;50.754;3.366;2023-08-20T05:15:27;7.88;;;3.60;;
20480;SDS011;10399;50.754;3.366;2023-08-20T05:17:55;8.30;;;3.40;;
20480;SDS011;10399;50.754;3.366;2023-08-20T05:20:23;8.50;;;3.30;;
20480;SDS011;10399;50.754;3.366;2023-08-20T05:22:51;8.18;;;3.60;;
20480;SDS011;10399;50.754;3.366;2023-08-20T05:25:18;6.70;;;3.35;;
20480;SDS011;10399;50.754;3.366;2023-08-20T05:27:48;12.48;;;3.83;;
20480;SDS011;10399;50.754;3.366;2023-08-20T05:30:15;10.15;;;3.53;;
20480;SDS011;10399;50.754;3.366;2023-08-20T05:32:44;10.73;;;3.67;;
20480;SDS011;10399;50.754;3.366;2023-08-20T05:35:14;8.73;;;3.60;;
20480;SDS011;10399;50.754;3.366;2023-08-20T05:37:44;9.30;;;3.50;;
20480;SDS011;10399;50.754;3.366;2023-08-20T05:40:12;7.90;;;3.28;;
20480;SDS011;10399;50.754;3.366;2023-08-20T05:42:46;7.63;;;3.50;;
20480;SDS011;10399;50.754;3.366;2023-08-20T05:45:17;10.20;;;3.47;;
20480;SDS011;10399;50.754;3.366;2023-08-20T05:47:44;8.70;;;3.45;;
20480;SDS011;10399;50.754;3.366;2023-08-20T05:50:13;10.00;;;2.95;;
20480;SDS011;10399;50.754;3.366;2023-08-20T05:52:42;8.55;;;3.10;;
20480;SDS011;10399;50.754;3.366;2023-08-20T05:55:10;6.15;;;3.05;;
20480;SDS011;10399;50.754;3.366;2023-08-20T05:57:39;7.00;;;2.88;;
20480;SDS011;10399;50.754;3.366;2023-08-20T06:00:09;10.10;;;3.63;;
20480;SDS011;10399;50.754;3.366;2023-08-20T06:02:37;10.23;;;3.40;;
20480;SDS011;10399;50.754;3.366;2023-08-20T06:05:05;11.20;;;3.20;;
20480;SDS011;10399;50.754;3.366;2023-08-20T06:07:32;8.48;;;3.33;;
20480;SDS011;10399;50.754;3.366;2023-08-20T06:09:59;5.82;;;3.40;;
20480;SDS011;10399;50.754;3.366;2023-08-20T06:12:28;10.32;;;3.45;;
20480;SDS011;10399;50.754;3.366;2023-08-20T06:14:56;7.93;;;3.20;;
20480;SDS011;10399;50.754;3.366;2023-08-20T06:17:23;7.43;;;3.65;;
20480;SDS011;10399;50.754;3.366;2023-08-20T06:19:50;13.63;;;4.20;;
20480;SDS011;10399;50.754;3.366;2023-08-20T06:22:17;12.65;;;4.20;;
20480;SDS011;10399;50.754;3.366;2023-08-20T06:24:47;16.48;;;4.50;;
20480;SDS011;10399;50.754;3.366;2023-08-20T06:27:15;8.52;;;3.95;;
20480;SDS011;10399;50.754;3.366;2023-08-20T06:29:42;9.85;;;4.03;;
20480;SDS011;10399;50.754;3.366;2023-08-20T06:32:10;9.27;;;3.80;;
20480;SDS011;10399;50.754;3.366;2023-08-20T06:34:37;13.05;;;3.65;;
20480;SDS011;10399;50.754;3.366;2023-08-20T06:37:04;10.48;;;3.72;;
20480;SDS011;10399;50.754;3.366;2023-08-20T06:39:31;12.45;;;3.58;;
20480;SDS011;10399;50.754;3.366;2023-08-20T06:41:59;14.18;;;3.80;;
20480;SDS011;10399;50.754;3.366;2023-08-20T06:44:27;12.20;;;3.92;;
20480;SDS011;10399;50.754;3.366;2023-08-20T06:46:54;13.40;;;4.55;;
20480;SDS011;10399;50.754;3.366;2023-08-20T06:49:21;11.85;;;3.50;;
20480;SDS011;10399;50.754;3.366;2023-08-20T06:51:51;8.93;;;3.80;;
20480;SDS011;10399;50.754;3.366;2023-08-20T06:54:20;10.85;;;3.60;;
20480;SDS011;10399;50.754;3.366;2023-08-20T06:56:49;10.05;;;3.47;;
20480;SDS011;10399;50.754;3.366;2023-08-20T06:59:16;11.15;;;2.95;;
20480;SDS011;10399;50.754;3.366;2023-08-20T07:01:45;12.82;;;3.13;;
20480;SDS011;10399;50.754;3.366;2023-08-20T07:04:12;10.13;;;3.35;;
20480;SDS011;10399;50.754;3.366;2023-08-20T07:06:41;9.32;;;3.17;;
20480;SDS011;10399;50.754;3.366;2023-08-20T07:09:09;9.18;;;3.20;;
20480;SDS011;10399;50.754;3.366;2023-08-20T07:11:36;7.75;;;3.40;;
20480;SDS011;10399;50.754;3.366;2023-08-20T07:14:05;9.75;;;3.20;;
20480;SDS011;10399;50.754;3.366;2023-08-20T07:16:32;13.00;;;2.60;;
20480;SDS011;10399;50.754;3.366;2023-08-20T07:18:59;9.32;;;2.65;;
20480;SDS011;10399;50.754;3.366;2023-08-20T07:21:26;10.43;;;2.35;;
20480;SDS011;10399;50.754;3.366;2023-08-20T07:23:54;9.48;;;2.75;;
20480;SDS011;10399;50.754;3.366;2023-08-20T07:26:21;9.38;;;2.50;;
20480;SDS011;10399;50.754;3.366;2023-08-20T07:28:50;9.63;;;2.40;;
20480;SDS011;10399;50.754;3.366;2023-08-20T07:31:24;11.02;;;1.92;;
20480;SDS011;10399;50.754;3.366;2023-08-20T07:33:53;7.75;;;2.17;;
20480;SDS011;10399;50.754;3.366;2023-08-20T07:36:22;15.60;;;2.45;;
20480;SDS011;10399;50.754;3.366;2023-08-20T07:38:52;8.55;;;2.20;;
20480;SDS011;10399;50.754;3.366;2023-08-20T07:41:20;6.97;;;1.83;;
20480;SDS011;10399;50.754;3.366;2023-08-20T07:43:49;10.35;;;2.13;;
20480;SDS011;10399;50.754;3.366;2023-08-20T07:46:17;8.70;;;2.13;;
20480;SDS011;10399;50.754;3.366;2023-08-20T07:48:45;7.07;;;1.63;;
20480;SDS011;10399;50.754;3.366;2023-08-20T07:51:12;7.07;;;1.70;;
20480;SDS011;10399;50.754;3.366;2023-08-20T07:53:40;8.00;;;1.80;;
20480;SDS011;10399;50.754;3.366;2023-08-20T07:56:07;7.25;;;1.52;;
20480;SDS011;10399;50.754;3.366;2023-08-20T07:58:38;8.35;;;1.70;;
20480;SDS011;10399;50.754;3.366;2023-08-20T08:01:05;4.88;;;1.17;;
20480;SDS011;10399;50.754;3.366;2023-08-20T08:03:32;8.88;;;1.75;;
20480;SDS011;10399;50.754;3.366;2023-08-20T08:06:00;5.50;;;1.58;;
20480;SDS011;10399;50.754;3.366;2023-08-20T08:08:29;5.13;;;1.48;;
20480;SDS011;10399;50.754;3.366;2023-08-20T08:10:56;9.20;;;1.77;;
20480;SDS011;10399;50.754;3.366;2023-08-20T08:13:23;8.75;;;1.77;;
20480;SDS011;10399;50.754;3.366;2023-08-20T08:15:52;4.45;;;1.38;;
20480;SDS011;10399;50.754;3.366;2023-08-20T08:18:20;9.32;;;1.52;;
20480;SDS011;10399;50.754;3.366;2023-08-20T08:20:47;9.48;;;1.42;;
20480;SDS011;10399;50.754;3.366;2023-08-20T08:23:17;8.10;;;1.50;;
20480;SDS011;10399;50.754;3.366;2023-08-20T08:25:44;6.40;;;1.35;;
20480;SDS011;10399;50.754;3.366;2023-08-20T08:28:11;8.07;;;1.60;;
20480;SDS011;10399;50.754;3.366;2023-08-20T08:30:39;5.22;;;1.40;;
20480;SDS011;10399;50.754;3.366;2023-08-20T08:33:06;6.85;;;1.75;;
20480;SDS011;10399;50.754;3.366;2023-08-20T08:35:35;4.68;;;1.27;;
20480;SDS011;10399;50.754;3.366;2023-08-20T08:38:03;4.00;;;1.13;;
20480;SDS011;10399;50.754;3.366;2023-08-20T08:40:33;6.40;;;1.05;;
20480;SDS011;10399;50.754;3.366;2023-08-20T08:43:00;4.28;;;1.00;;
20480;SDS011;10399;50.754;3.366;2023-08-20T08:45:28;5.25;;;1.33;;
20480;SDS011;10399;50.754;3.366;2023-08-20T08:48:00;8.77;;;1.08;;
20480;SDS011;10399;50.754;3.366;2023-08-20T08:50:29;5.05;;;1.00;;
20480;SDS011;10399;50.754;3.366;2023-08-20T08:52:59;3.30;;;0.93;;
20480;SDS011;10399;50.754;3.366;2023-08-20T08:55:27;3.67;;;0.93;;
20480;SDS011;10399;50.754;3.366;2023-08-20T08:57:56;5.25;;;0.90;;
20480;SDS011;10399;50.754;3.366;2023-08-20T09:00:24;3.53;;;0.75;;
20480;SDS011;10399;50.754;3.366;2023-08-20T09:02:53;2.85;;;0.90;;
20480;SDS011;10399;50.754;3.366;2023-08-20T09:05:20;3.80;;;0.80;;
20480;SDS011;10399;50.754;3.366;2023-08-20T09:07:54;3.88;;;0.88;;
20480;SDS011;10399;50.754;3.366;2023-08-20T09:10:26;1.45;;;0.70;;
20480;SDS011;10399;50.754;3.366;2023-08-20T09:12:57;3.03;;;0.80;;
20480;SDS011;10399;50.754;3.366;2023-08-20T09:15:32;2.90;;;0.70;;
20480;SDS011;10399;50.754;3.366;2023-08-20T09:18:02;1.92;;;0.73;;
20480;SDS011;10399;50.754;3.366;2023-08-20T09:20:35;2.70;;;0.80;;
20480;SDS011;10399;50.754;3.366;2023-08-20T09:23:10;4.40;;;0.93;;
20480;SDS011;10399;50.754;3.366;2023-08-20T09:25:41;3.00;;;0.88;;
20480;SDS011;10399;50.754;3.366;2023-08-20T09:28:11;2.75;;;0.85;;
20480;SDS011;10399;50.754;3.366;2023-08-20T09:30:39;2.15;;;0.90;;
20480;SDS011;10399;50.754;3.366;2023-08-20T09:33:09;4.93;;;1.00;;
20480;SDS011;10399;50.754;3.366;2023-08-20T09:35:38;3.67;;;0.80;;
20480;SDS011;10399;50.754;3.366;2023-08-20T09:38:21;7.03;;;1.17;;
20480;SDS011;10399;50.754;3.366;2023-08-20T09:40:56;5.55;;;1.10;;
20480;SDS011;10399;50.754;3.366;2023-08-20T09:43:24;4.75;;;0.90;;
20480;SDS011;10399;50.754;3.366;2023-08-20T09:45:56;2.72;;;0.75;;
20480;SDS011;10399;50.754;3.366;2023-08-20T09:48:27;3.65;;;1.20;;
20480;SDS011;10399;50.754;3.366;2023-08-20T09:51:03;4.53;;;0.80;;
20480;SDS011;10399;50.754;3.366;2023-08-20T09:53:41;4.15;;;1.00;;
20480;SDS011;10399;50.754;3.366;2023-08-20T09:56:20;4.43;;;0.82;;
20480;SDS011;10399;50.754;3.366;2023-08-20T09:58:53;4.85;;;1.13;;
20480;SDS011;10399;50.754;3.366;2023-08-20T10:01:22;4.95;;;0.90;;
20480;SDS011;10399;50.754;3.366;2023-08-20T10:03:50;3.88;;;0.98;;
20480;SDS011;10399;50.754;3.366;2023-08-20T10:06:19;3.83;;;1.10;;
20480;SDS011;10399;50.754;3.366;2023-08-20T10:08:47;4.93;;;1.20;;
20480;SDS011;10399;50.754;3.366;2023-08-20T10:11:15;4.45;;;0.90;;
20480;SDS011;10399;50.754;3.366;2023-08-20T10:13:43;5.45;;;1.10;;
20480;SDS011;10399;50.754;3.366;2023-08-20T10:16:12;3.63;;;1.00;;
20480;SDS011;10399;50.754;3.366;2023-08-20T10:18:40;1.90;;;0.80;;
20480;SDS011;10399;50.754;3.366;2023-08-20T10:21:08;4.00;;;0.88;;
20480;SDS011;10399;50.754;3.366;2023-08-20T10:23:36;5.47;;;0.90;;
20480;SDS011;10399;50.754;3.366;2023-08-20T10:26:09;3.05;;;0.80;;
20480;SDS011;10399;50.754;3.366;2023-08-20T10:28:37;2.28;;;0.63;;
20480;SDS011;10399;50.754;3.366;2023-08-20T10:31:07;3.85;;;0.90;;
20480;SDS011;10399;50.754;3.366;2023-08-20T10:33:55;2.45;;;1.10;;
20480;SDS011;10399;50.754;3.366;2023-08-20T10:36:26;5.43;;;1.10;;
20480;SDS011;10399;50.754;3.366;2023-08-20T10:39:02;2.90;;;0.73;;
20480;SDS011;10399;50.754;3.366;2023-08-20T10:41:31;4.45;;;0.82;;
20480;SDS011;10399;50.754;3.366;2023-08-20T10:44:00;3.92;;;0.80;;
20480;SDS011;10399;50.754;3.366;2023-08-20T10:46:28;3.75;;;0.80;;
20480;SDS011;10399;50.754;3.366;2023-08-20T10:49:02;3.35;;;1.08;;
20480;SDS011;10399;50.754;3.366;2023-08-20T10:51:36;3.30;;;0.80;;
20480;SDS011;10399;50.754;3.366;2023-08-20T10:54:08;2.60;;;0.90;;
20480;SDS011;10399;50.754;3.366;2023-08-20T10:56:46;4.20;;;1.10;;
20480;SDS011;10399;50.754;3.366;2023-08-20T11:01:48;5.28;;;0.90;;
20480;SDS011;10399;50.754;3.366;2023-08-20T11:04:30;4.95;;;1.13;;
20480;SDS011;10399;50.754;3.366;2023-08-20T11:07:03;4.07;;;1.20;;
20480;SDS011;10399;50.754;3.366;2023-08-20T11:09:32;3.15;;;1.20;;
20480;SDS011;10399;50.754;3.366;2023-08-20T11:11:59;1.70;;;0.70;;
20480;SDS011;10399;50.754;3.366;2023-08-20T11:14:29;4.15;;;1.10;;
20480;SDS011;10399;50.754;3.366;2023-08-20T11:16:57;2.75;;;0.80;;
20480;SDS011;10399;50.754;3.366;2023-08-20T11:19:25;3.25;;;1.17;;
20480;SDS011;10399;50.754;3.366;2023-08-20T11:21:52;3.20;;;0.90;;
20480;SDS011;10399;50.754;3.366;2023-08-20T11:24:21;6.05;;;1.38;;
20480;SDS011;10399;50.754;3.366;2023-08-20T11:26:49;6.20;;;1.33;;
20480;SDS011;10399;50.754;3.366;2023-08-20T11:29:16;3.92;;;0.98;;
20480;SDS011;10399;50.754;3.366;2023-08-20T11:31:48;3.78;;;1.13;;
20480;SDS011;10399;50.754;3.366;2023-08-20T11:34:19;5.53;;;1.10;;
20480;SDS011;10399;50.754;3.366;2023-08-20T11:36:49;3.45;;;1.05;;
20480;SDS011;10399;50.754;3.366;2023-08-20T11:39:19;4.68;;;1.02;;
20480;SDS011;10399;50.754;3.366;2023-08-20T11:41:48;3.03;;;0.77;;
20480;SDS011;10399;50.754;3.366;2023-08-20T11:44:21;4.00;;;0.93;;
20480;SDS011;10399;50.754;3.366;2023-08-20T11:46:49;4.35;;;0.98;;
20480;SDS011;10399;50.754;3.366;2023-08-20T11:49:16;2.42;;;0.80;;
20480;SDS011;10399;50.754;3.366;2023-08-20T11:51:44;3.83;;;1.05;;
20480;SDS011;10399;50.754;3.366;2023-08-20T11:54:16;5.55;;;1.13;;
20480;SDS011;10399;50.754;3.366;2023-08-20T11:56:45;3.20;;;1.15;;
20480;SDS011;10399;50.754;3.366;2023-08-20T11:59:17;4.22;;;0.90;;
20480;SDS011;10399;50.754;3.366;2023-08-20T12:02:00;3.35;;;0.70;;
20480;SDS011;10399;50.754;3.366;2023-08-20T12:04:30;4.40;;;0.90;;
20480;SDS011;10399;50.754;3.366;2023-08-20T12:09:32;5.07;;;1.10;;
20480;SDS011;10399;50.754;3.366;2023-08-20T12:12:01;4.45;;;1.10;;
20480;SDS011;10399;50.754;3.366;2023-08-20T12:14:29;4.10;;;1.13;;
20480;SDS011;10399;50.754;3.366;2023-08-20T12:16:57;3.20;;;0.90;;
20480;SDS011;10399;50.754;3.366;2023-08-20T12:19:24;4.05;;;1.00;;
20480;SDS011;10399;50.754;3.366;2023-08-20T12:21:52;3.08;;;1.23;;
20480;SDS011;10399;50.754;3.366;2023-08-20T12:24:20;2.80;;;1.10;;
20480;SDS011;10399;50.754;3.366;2023-08-20T12:26:49;6.90;;;1.50;;
20480;SDS011;10399;50.754;3.366;2023-08-20T12:29:16;3.75;;;1.00;;
20480;SDS011;10399;50.754;3.366;2023-08-20T12:31:44;1.65;;;0.90;;
20480;SDS011;10399;50.754;3.366;2023-08-20T12:34:12;6.82;;;0.93;;
20480;SDS011;10399;50.754;3.366;2023-08-20T12:36:39;6.00;;;1.00;;
20480;SDS011;10399;50.754;3.366;2023-08-20T12:39:07;5.15;;;1.50;;
20480;SDS011;10399;50.754;3.366;2023-08-20T12:41:34;4.55;;;1.20;;
20480;SDS011;10399;50.754;3.366;2023-08-20T12:44:03;5.32;;;1.20;;
20480;SDS011;10399;50.754;3.366;2023-08-20T12:46:30;2.92;;;1.02;;
20480;SDS011;10399;50.754;3.366;2023-08-20T12:48:58;5.00;;;1.10;;
20480;SDS011;10399;50.754;3.366;2023-08-20T12:51:26;3.25;;;0.93;;
20480;SDS011;10399;50.754;3.366;2023-08-20T12:53:53;3.28;;;1.10;;
20480;SDS011;10399;50.754;3.366;2023-08-20T12:56:20;3.13;;;0.98;;
20480;SDS011;10399;50.754;3.366;2023-08-20T12:58:48;2.67;;;1.10;;
20480;SDS011;10399;50.754;3.366;2023-08-20T13:01:15;4.72;;;1.13;;
20480;SDS011;10399;50.754;3.366;2023-08-20T13:03:44;5.45;;;1.10;;
20480;SDS011;10399;50.754;3.366;2023-08-20T13:06:15;5.25;;;1.38;;
20480;SDS011;10399;50.754;3.366;2023-08-20T13:08:43;4.00;;;1.17;;
20480;SDS011;10399;50.754;3.366;2023-08-20T13:11:11;8.15;;;1.33;;
20480;SDS011;10399;50.754;3.366;2023-08-20T13:13:43;3.40;;;1.20;;
20480;SDS011;10399;50.754;3.366;2023-08-20T13:16:12;4.70;;;1.17;;
20480;SDS011;10399;50.754;3.366;2023-08-20T13:18:40;4.30;;;0.90;;
20480;SDS011;10399;50.754;3.366;2023-08-20T13:21:07;5.55;;;1.10;;
20480;SDS011;10399;50.754;3.366;2023-08-20T13:23:35;4.68;;;1.02;;
20480;SDS011;10399;50.754;3.366;2023-08-20T13:26:03;3.72;;;1.05;;
20480;SDS011;10399;50.754;3.366;2023-08-20T13:28:33;4.15;;;1.05;;
20480;SDS011;10399;50.754;3.366;2023-08-20T13:31:00;4.25;;;0.85;;
20480;SDS011;10399;50.754;3.366;2023-08-20T13:33:28;3.47;;;1.10;;
20480;SDS011;10399;50.754;3.366;2023-08-20T13:35:57;3.72;;;0.75;;
20480;SDS011;10399;50.754;3.366;2023-08-20T13:38:24;4.18;;;1.08;;
20480;SDS011;10399;50.754;3.366;2023-08-20T13:40:52;2.15;;;0.85;;
20480;SDS011;10399;50.754;3.366;2023-08-20T13:43:20;5.10;;;1.42;;
20480;SDS011;10399;50.754;3.366;2023-08-20T13:45:47;4.10;;;0.93;;
20480;SDS011;10399;50.754;3.366;2023-08-20T13:48:17;3.00;;;1.15;;
20480;SDS011;10399;50.754;3.366;2023-08-20T13:50:52;3.58;;;1.10;;
20480;SDS011;10399;50.754;3.366;2023-08-20T13:53:22;6.28;;;1.17;;
20480;SDS011;10399;50.754;3.366;2023-08-20T13:55:49;4.72;;;1.15;;
20480;SDS011;10399;50.754;3.366;2023-08-20T13:58:18;3.95;;;1.13;;
20480;SDS011;10399;50.754;3.366;2023-08-20T14:00:45;3.15;;;1.00;;
20480;SDS011;10399;50.754;3.366;2023-08-20T14:03:12;3.92;;;0.98;;
20480;SDS011;10399;50.754;3.366;2023-08-20T14:05:40;4.97;;;1.30;;
20480;SDS011;10399;50.754;3.366;2023-08-20T14:08:07;4.57;;;0.75;;
20480;SDS011;10399;50.754;3.366;2023-08-20T14:10:34;4.70;;;0.90;;
20480;SDS011;10399;50.754;3.366;2023-08-20T14:13:01;2.65;;;1.00;;
20480;SDS011;10399;50.754;3.366;2023-08-20T14:15:29;4.63;;;0.90;;
20480;SDS011;10399;50.754;3.366;2023-08-20T14:17:56;6.47;;;1.33;;
20480;SDS011;10399;50.754;3.366;2023-08-20T14:20:27;3.78;;;1.23;;
20480;SDS011;10399;50.754;3.366;2023-08-20T14:22:54;6.13;;;1.17;;
20480;SDS011;10399;50.754;3.366;2023-08-20T14:25:21;6.00;;;1.02;;
20480;SDS011;10399;50.754;3.366;2023-08-20T14:27:49;2.47;;;1.08;;
20480;SDS011;10399;50.754;3.366;2023-08-20T14:30:17;4.72;;;1.20;;
20480;SDS011;10399;50.754;3.366;2023-08-20T14:32:45;3.67;;;1.25;;
20480;SDS011;10399;50.754;3.366;2023-08-20T14:35:12;4.35;;;1.30;;
20480;SDS011;10399;50.754;3.366;2023-08-20T14:37:40;5.38;;;1.10;;
20480;SDS011;10399;50.754;3.366;2023-08-20T14:40:07;4.85;;;1.33;;
20480;SDS011;10399;50.754;3.366;2023-08-20T14:42:37;2.45;;;1.20;;
20480;SDS011;10399;50.754;3.366;2023-08-20T14:45:05;3.38;;;1.10;;
20480;SDS011;10399;50.754;3.366;2023-08-20T14:47:33;3.25;;;1.10;;
20480;SDS011;10399;50.754;3.366;2023-08-20T14:50:00;5.72;;;1.13;;
20480;SDS011;10399;50.754;3.366;2023-08-20T14:52:28;2.75;;;1.52;;
20480;SDS011;10399;50.754;3.366;2023-08-20T14:54:57;3.28;;;1.20;;
20480;SDS011;10399;50.754;3.366;2023-08-20T14:57:24;4.50;;;1.20;;
20480;SDS011;10399;50.754;3.366;2023-08-20T15:00:09;5.57;;;1.15;;
20480;SDS011;10399;50.754;3.366;2023-08-20T15:02:40;3.28;;;1.33;;
20480;SDS011;10399;50.754;3.366;2023-08-20T15:05:08;5.55;;;1.88;;